sensor_id;sensor_type;location;lat;lon;timestamp;temperature;humidity
16174;DHT22;14031;50.158;8.626;2023-06-22T00:01:51;25.10;99.90
16174;DHT22;14031;50.158;8.626;2023-06-22T00:04:18;24.90;99.90
16174;DHT22;14031;50.158;8.626;2023-06-22T00:07:08;24.90;99.90
16174;DHT22;14031;50.158;8.626;2023-06-22T00:12:57;24.90;99.90
16174;DHT22;14031;50.158;8.626;2023-06-22T00:15:24;24.80;99.90
16174;DHT22;14031;50.158;8.626;2023-06-22T00:17:51;24.80;99.90
16174;DHT22;14031;50.158;8.626;2023-06-22T00:20:18;24.80;99.90
16174;DHT22;14031;50.158;8.626;2023-06-22T00:25:55;24.80;99.90
16174;DHT22;14031;50.158;8.626;2023-06-22T00:28:22;24.70;99.90
16174;DHT22;14031;50.158;8.626;2023-06-22T00:30:50;24.70;99.90
16174;DHT22;14031;50.158;8.626;2023-06-22T00:33:17;24.70;99.90
16174;DHT22;14031;50.158;8.626;2023-06-22T00:35:44;24.70;99.90
16174;DHT22;14031;50.158;8.626;2023-06-22T00:38:11;24.80;99.90
16174;DHT22;14031;50.158;8.626;2023-06-22T00:40:38;24.80;99.90
16174;DHT22;14031;50.158;8.626;2023-06-22T00:46:34;24.90;99.90
16174;DHT22;14031;50.158;8.626;2023-06-22T00:49:01;24.90;99.90
16174;DHT22;14031;50.158;8.626;2023-06-22T00:51:31;24.90;99.90
16174;DHT22;14031;50.158;8.626;2023-06-22T00:53:58;24.90;99.90
16174;DHT22;14031;50.158;8.626;2023-06-22T00:56:25;24.90;99.90
16174;DHT22;14031;50.158;8.626;2023-06-22T00:58:53;24.90;99.90
16174;DHT22;14031;50.158;8.626;2023-06-22T01:04:43;24.90;99.90
16174;DHT22;14031;50.158;8.626;2023-06-22T01:07:16;24.90;99.90
16174;DHT22;14031;50.158;8.626;2023-06-22T01:09:51;24.90;99.90
16174;DHT22;14031;50.158;8.626;2023-06-22T01:12:21;24.90;99.90
16174;DHT22;14031;50.158;8.626;2023-06-22T01:14:52;24.80;99.90
16174;DHT22;14031;50.158;8.626;2023-06-22T01:17:23;24.90;99.90
16174;DHT22;14031;50.158;8.626;2023-06-22T01:19:54;24.80;99.90
16174;DHT22;14031;50.158;8.626;2023-06-22T01:22:24;24.70;99.90
16174;DHT22;14031;50.158;8.626;2023-06-22T01:24:57;24.70;99.90
16174;DHT22;14031;50.158;8.626;2023-06-22T01:27:33;24.70;99.90
16174;DHT22;14031;50.158;8.626;2023-06-22T01:30:05;24.60;99.90
16174;DHT22;14031;50.158;8.626;2023-06-22T01:32:34;24.50;99.90
16174;DHT22;14031;50.158;8.626;2023-06-22T01:35:04;24.50;99.90
16174;DHT22;14031;50.158;8.626;2023-06-22T01:37:36;24.40;99.90
16174;DHT22;14031;50.158;8.626;2023-06-22T01:40:04;24.40;99.90
16174;DHT22;14031;50.158;8.626;2023-06-22T01:42:32;24.40;99.90
16174;DHT22;14031;50.158;8.626;2023-06-22T01:44:59;24.30;99.90
16174;DHT22;14031;50.158;8.626;2023-06-22T01:47:28;24.30;99.90
16174;DHT22;14031;50.158;8.626;2023-06-22T01:49:55;24.20;99.90
16174;DHT22;14031;50.158;8.626;2023-06-22T01:52:22;24.10;99.90
16174;DHT22;14031;50.158;8.626;2023-06-22T01:54:49;24.00;99.90
16174;DHT22;14031;50.158;8.626;2023-06-22T01:57:16;23.90;99.90
16174;DHT22;14031;50.158;8.626;2023-06-22T01:59:48;23.80;99.90
16174;DHT22;14031;50.158;8.626;2023-06-22T02:02:20;23.70;99.90
16174;DHT22;14031;50.158;8.626;2023-06-22T02:04:56;23.70;99.90
16174;DHT22;14031;50.158;8.626;2023-06-22T02:07:28;23.70;99.90
16174;DHT22;14031;50.158;8.626;2023-06-22T02:09:58;23.70;99.90
16174;DHT22;14031;50.158;8.626;2023-06-22T02:12:26;23.80;99.90
16174;DHT22;14031;50.158;8.626;2023-06-22T02:14:54;23.80;99.90
16174;DHT22;14031;50.158;8.626;2023-06-22T02:17:22;23.80;99.90
16174;DHT22;14031;50.158;8.626;2023-06-22T02:19:50;23.80;99.90
16174;DHT22;14031;50.158;8.626;2023-06-22T02:22:18;23.70;99.90
16174;DHT22;14031;50.158;8.626;2023-06-22T02:24:45;23.70;99.90
16174;DHT22;14031;50.158;8.626;2023-06-22T02:27:11;23.70;99.90
16174;DHT22;14031;50.158;8.626;2023-06-22T02:29:38;23.70;99.90
16174;DHT22;14031;50.158;8.626;2023-06-22T02:32:06;23.60;99.90
16174;DHT22;14031;50.158;8.626;2023-06-22T02:34:32;23.60;99.90
16174;DHT22;14031;50.158;8.626;2023-06-22T02:36:59;23.60;99.90
16174;DHT22;14031;50.158;8.626;2023-06-22T02:39:29;23.60;99.90
16174;DHT22;14031;50.158;8.626;2023-06-22T02:41:58;23.60;99.90
16174;DHT22;14031;50.158;8.626;2023-06-22T02:44:24;23.60;99.90
16174;DHT22;14031;50.158;8.626;2023-06-22T02:46:51;23.50;99.90
16174;DHT22;14031;50.158;8.626;2023-06-22T02:49:19;23.50;99.90
16174;DHT22;14031;50.158;8.626;2023-06-22T02:51:47;23.50;99.90
16174;DHT22;14031;50.158;8.626;2023-06-22T02:54:14;23.50;99.90
16174;DHT22;14031;50.158;8.626;2023-06-22T02:56:43;23.50;99.90
16174;DHT22;14031;50.158;8.626;2023-06-22T02:59:10;23.50;99.90
16174;DHT22;14031;50.158;8.626;2023-06-22T03:01:37;23.50;99.90
16174;DHT22;14031;50.158;8.626;2023-06-22T03:04:05;23.50;99.90
16174;DHT22;14031;50.158;8.626;2023-06-22T03:06:33;23.50;99.90
16174;DHT22;14031;50.158;8.626;2023-06-22T03:09:01;23.50;99.90
16174;DHT22;14031;50.158;8.626;2023-06-22T03:11:29;23.40;99.90
16174;DHT22;14031;50.158;8.626;2023-06-22T03:13:57;23.40;99.90
16174;DHT22;14031;50.158;8.626;2023-06-22T03:16:24;23.30;99.90
16174;DHT22;14031;50.158;8.626;2023-06-22T03:18:51;23.30;99.90
16174;DHT22;14031;50.158;8.626;2023-06-22T03:21:19;23.30;99.90
16174;DHT22;14031;50.158;8.626;2023-06-22T03:23:45;23.30;99.90
16174;DHT22;14031;50.158;8.626;2023-06-22T03:26:12;23.20;99.90
16174;DHT22;14031;50.158;8.626;2023-06-22T03:28:39;23.30;99.90
16174;DHT22;14031;50.158;8.626;2023-06-22T03:31:08;23.30;99.90
16174;DHT22;14031;50.158;8.626;2023-06-22T03:33:35;23.30;99.90
16174;DHT22;14031;50.158;8.626;2023-06-22T03:36:02;23.30;99.90
16174;DHT22;14031;50.158;8.626;2023-06-22T03:38:28;23.30;99.90
16174;DHT22;14031;50.158;8.626;2023-06-22T03:40:55;23.30;99.90
16174;DHT22;14031;50.158;8.626;2023-06-22T03:43:23;23.30;99.90
16174;DHT22;14031;50.158;8.626;2023-06-22T03:45:50;23.30;99.90
16174;DHT22;14031;50.158;8.626;2023-06-22T03:48:18;23.40;99.90
16174;DHT22;14031;50.158;8.626;2023-06-22T03:50:45;23.40;99.90
16174;DHT22;14031;50.158;8.626;2023-06-22T03:53:11;23.40;99.90
16174;DHT22;14031;50.158;8.626;2023-06-22T03:55:42;23.40;99.90
16174;DHT22;14031;50.158;8.626;2023-06-22T03:58:14;23.40;99.90
16174;DHT22;14031;50.158;8.626;2023-06-22T04:00:40;23.40;99.90
16174;DHT22;14031;50.158;8.626;2023-06-22T04:03:07;23.40;99.90
16174;DHT22;14031;50.158;8.626;2023-06-22T04:05:35;23.40;99.90
16174;DHT22;14031;50.158;8.626;2023-06-22T04:08:02;23.40;99.90
16174;DHT22;14031;50.158;8.626;2023-06-22T04:10:29;23.50;99.90
16174;DHT22;14031;50.158;8.626;2023-06-22T04:12:56;23.40;99.90
16174;DHT22;14031;50.158;8.626;2023-06-22T04:15:23;23.50;99.90
16174;DHT22;14031;50.158;8.626;2023-06-22T04:17:50;23.40;99.90
16174;DHT22;14031;50.158;8.626;2023-06-22T04:20:17;23.40;99.90
16174;DHT22;14031;50.158;8.626;2023-06-22T04:22:45;23.30;99.90
16174;DHT22;14031;50.158;8.626;2023-06-22T04:25:12;23.30;99.90
16174;DHT22;14031;50.158;8.626;2023-06-22T04:27:38;23.30;99.90
16174;DHT22;14031;50.158;8.626;2023-06-22T04:30:09;23.30;99.90
16174;DHT22;14031;50.158;8.626;2023-06-22T04:32:49;23.40;99.90
16174;DHT22;14031;50.158;8.626;2023-06-22T04:35:22;23.40;99.90
16174;DHT22;14031;50.158;8.626;2023-06-22T04:37:59;23.30;99.90
16174;DHT22;14031;50.158;8.626;2023-06-22T04:40:26;23.30;99.90
16174;DHT22;14031;50.158;8.626;2023-06-22T04:42:55;23.30;99.90
16174;DHT22;14031;50.158;8.626;2023-06-22T04:47:56;23.30;99.90
16174;DHT22;14031;50.158;8.626;2023-06-22T04:50:26;23.30;99.90
16174;DHT22;14031;50.158;8.626;2023-06-22T04:52:52;23.30;99.90
16174;DHT22;14031;50.158;8.626;2023-06-22T04:55:21;23.40;99.90
16174;DHT22;14031;50.158;8.626;2023-06-22T04:57:48;23.30;99.90
16174;DHT22;14031;50.158;8.626;2023-06-22T05:00:18;23.30;99.90
16174;DHT22;14031;50.158;8.626;2023-06-22T05:02:46;23.40;99.90
16174;DHT22;14031;50.158;8.626;2023-06-22T05:05:14;23.50;99.90
16174;DHT22;14031;50.158;8.626;2023-06-22T05:07:43;23.50;99.90
16174;DHT22;14031;50.158;8.626;2023-06-22T05:10:12;23.50;99.90
16174;DHT22;14031;50.158;8.626;2023-06-22T05:12:41;23.50;99.90
16174;DHT22;14031;50.158;8.626;2023-06-22T05:15:10;23.60;99.90
16174;DHT22;14031;50.158;8.626;2023-06-22T05:17:38;23.60;99.90
16174;DHT22;14031;50.158;8.626;2023-06-22T05:20:09;23.60;99.90
16174;DHT22;14031;50.158;8.626;2023-06-22T05:22:36;23.60;99.90
16174;DHT22;14031;50.158;8.626;2023-06-22T05:25:05;23.70;99.90
16174;DHT22;14031;50.158;8.626;2023-06-22T05:27:32;23.60;99.90
16174;DHT22;14031;50.158;8.626;2023-06-22T05:30:00;23.70;99.90
16174;DHT22;14031;50.158;8.626;2023-06-22T05:32:27;23.70;99.90
16174;DHT22;14031;50.158;8.626;2023-06-22T05:34:54;23.70;99.90
16174;DHT22;14031;50.158;8.626;2023-06-22T05:37:20;23.80;99.90
16174;DHT22;14031;50.158;8.626;2023-06-22T05:39:48;23.90;99.90
16174;DHT22;14031;50.158;8.626;2023-06-22T05:42:15;23.90;99.90
16174;DHT22;14031;50.158;8.626;2023-06-22T05:44:43;23.90;99.90
16174;DHT22;14031;50.158;8.626;2023-06-22T05:47:11;23.90;99.90
16174;DHT22;14031;50.158;8.626;2023-06-22T05:49:40;23.80;99.90
16174;DHT22;14031;50.158;8.626;2023-06-22T05:52:07;23.80;99.90
16174;DHT22;14031;50.158;8.626;2023-06-22T05:54:34;23.80;99.90
16174;DHT22;14031;50.158;8.626;2023-06-22T05:57:06;23.90;99.90
16174;DHT22;14031;50.158;8.626;2023-06-22T05:59:34;24.00;99.90
16174;DHT22;14031;50.158;8.626;2023-06-22T06:02:00;24.00;99.90
16174;DHT22;14031;50.158;8.626;2023-06-22T06:04:29;24.00;99.90
16174;DHT22;14031;50.158;8.626;2023-06-22T06:06:57;24.10;99.90
16174;DHT22;14031;50.158;8.626;2023-06-22T06:09:25;24.20;99.90
16174;DHT22;14031;50.158;8.626;2023-06-22T06:11:52;24.30;99.90
16174;DHT22;14031;50.158;8.626;2023-06-22T06:14:19;24.30;99.90
16174;DHT22;14031;50.158;8.626;2023-06-22T06:16:46;24.30;99.90
16174;DHT22;14031;50.158;8.626;2023-06-22T06:19:13;24.30;99.90
16174;DHT22;14031;50.158;8.626;2023-06-22T06:21:41;24.30;99.90
16174;DHT22;14031;50.158;8.626;2023-06-22T06:24:08;24.50;99.90
16174;DHT22;14031;50.158;8.626;2023-06-22T06:26:34;24.50;99.90
16174;DHT22;14031;50.158;8.626;2023-06-22T06:29:01;24.50;99.90
16174;DHT22;14031;50.158;8.626;2023-06-22T06:31:28;24.50;99.90
16174;DHT22;14031;50.158;8.626;2023-06-22T06:33:56;24.50;99.90
16174;DHT22;14031;50.158;8.626;2023-06-22T06:36:23;24.60;99.90
16174;DHT22;14031;50.158;8.626;2023-06-22T06:38:51;24.70;99.90
16174;DHT22;14031;50.158;8.626;2023-06-22T06:41:18;24.80;99.90
16174;DHT22;14031;50.158;8.626;2023-06-22T06:43:46;24.90;99.90
16174;DHT22;14031;50.158;8.626;2023-06-22T06:46:13;25.00;99.90
16174;DHT22;14031;50.158;8.626;2023-06-22T06:48:42;25.00;99.90
16174;DHT22;14031;50.158;8.626;2023-06-22T06:51:09;25.00;99.90
16174;DHT22;14031;50.158;8.626;2023-06-22T06:53:36;25.10;99.90
16174;DHT22;14031;50.158;8.626;2023-06-22T06:56:04;25.10;99.90
16174;DHT22;14031;50.158;8.626;2023-06-22T06:58:31;25.10;99.90
16174;DHT22;14031;50.158;8.626;2023-06-22T07:00:58;25.10;99.90
16174;DHT22;14031;50.158;8.626;2023-06-22T07:03:25;25.20;99.90
16174;DHT22;14031;50.158;8.626;2023-06-22T07:05:52;25.20;99.90
16174;DHT22;14031;50.158;8.626;2023-06-22T07:08:19;25.20;99.90
16174;DHT22;14031;50.158;8.626;2023-06-22T07:10:46;25.20;99.90
16174;DHT22;14031;50.158;8.626;2023-06-22T07:13:14;25.20;99.90
16174;DHT22;14031;50.158;8.626;2023-06-22T07:15:41;25.20;99.90
16174;DHT22;14031;50.158;8.626;2023-06-22T07:18:08;25.30;99.90
16174;DHT22;14031;50.158;8.626;2023-06-22T07:20:35;25.30;99.90
16174;DHT22;14031;50.158;8.626;2023-06-22T07:23:02;25.30;99.90
16174;DHT22;14031;50.158;8.626;2023-06-22T07:25:28;25.20;99.90
16174;DHT22;14031;50.158;8.626;2023-06-22T07:28:00;25.20;99.90
16174;DHT22;14031;50.158;8.626;2023-06-22T07:30:29;25.30;99.90
16174;DHT22;14031;50.158;8.626;2023-06-22T07:32:57;25.40;99.90
16174;DHT22;14031;50.158;8.626;2023-06-22T07:35:30;25.40;99.90
16174;DHT22;14031;50.158;8.626;2023-06-22T07:37:57;25.40;99.90
16174;DHT22;14031;50.158;8.626;2023-06-22T07:40:23;25.50;99.90
16174;DHT22;14031;50.158;8.626;2023-06-22T07:42:50;25.60;99.90
16174;DHT22;14031;50.158;8.626;2023-06-22T07:45:19;25.70;99.90
16174;DHT22;14031;50.158;8.626;2023-06-22T07:47:47;25.80;99.90
16174;DHT22;14031;50.158;8.626;2023-06-22T07:50:13;25.90;99.90
16174;DHT22;14031;50.158;8.626;2023-06-22T07:52:40;26.00;99.90
16174;DHT22;14031;50.158;8.626;2023-06-22T07:55:08;26.10;99.90
16174;DHT22;14031;50.158;8.626;2023-06-22T07:57:34;26.30;99.90
16174;DHT22;14031;50.158;8.626;2023-06-22T08:00:03;26.40;99.90
16174;DHT22;14031;50.158;8.626;2023-06-22T08:02:36;26.40;99.90
16174;DHT22;14031;50.158;8.626;2023-06-22T08:05:05;26.40;99.90
16174;DHT22;14031;50.158;8.626;2023-06-22T08:07:33;26.50;99.90
16174;DHT22;14031;50.158;8.626;2023-06-22T08:10:03;26.50;99.90
16174;DHT22;14031;50.158;8.626;2023-06-22T08:12:30;26.60;99.90
16174;DHT22;14031;50.158;8.626;2023-06-22T08:14:57;26.70;99.90
16174;DHT22;14031;50.158;8.626;2023-06-22T08:17:24;26.80;99.90
16174;DHT22;14031;50.158;8.626;2023-06-22T08:19:50;26.90;99.90
16174;DHT22;14031;50.158;8.626;2023-06-22T08:22:19;26.90;99.90
16174;DHT22;14031;50.158;8.626;2023-06-22T08:24:45;27.00;99.90
16174;DHT22;14031;50.158;8.626;2023-06-22T08:27:12;27.00;99.90
16174;DHT22;14031;50.158;8.626;2023-06-22T08:29:40;27.10;99.90
16174;DHT22;14031;50.158;8.626;2023-06-22T08:32:08;27.20;99.90
16174;DHT22;14031;50.158;8.626;2023-06-22T08:34:35;27.30;99.90
16174;DHT22;14031;50.158;8.626;2023-06-22T08:37:02;27.30;99.90
16174;DHT22;14031;50.158;8.626;2023-06-22T08:39:33;27.40;99.90
16174;DHT22;14031;50.158;8.626;2023-06-22T08:42:00;27.60;99.90
16174;DHT22;14031;50.158;8.626;2023-06-22T08:44:27;27.80;99.90
16174;DHT22;14031;50.158;8.626;2023-06-22T08:46:54;27.90;99.90
16174;DHT22;14031;50.158;8.626;2023-06-22T08:49:20;27.90;99.90
16174;DHT22;14031;50.158;8.626;2023-06-22T08:51:48;28.00;99.90
16174;DHT22;14031;50.158;8.626;2023-06-22T08:54:15;28.10;99.90
16174;DHT22;14031;50.158;8.626;2023-06-22T08:56:43;28.10;99.90
16174;DHT22;14031;50.158;8.626;2023-06-22T08:59:10;28.10;99.90
16174;DHT22;14031;50.158;8.626;2023-06-22T09:01:37;28.30;99.90
16174;DHT22;14031;50.158;8.626;2023-06-22T09:04:04;28.40;99.90
16174;DHT22;14031;50.158;8.626;2023-06-22T09:06:32;28.50;99.90
16174;DHT22;14031;50.158;8.626;2023-06-22T09:08:59;28.50;99.90
16174;DHT22;14031;50.158;8.626;2023-06-22T09:11:26;28.60;99.90
16174;DHT22;14031;50.158;8.626;2023-06-22T09:13:54;28.80;99.90
16174;DHT22;14031;50.158;8.626;2023-06-22T09:16:21;28.80;99.90
16174;DHT22;14031;50.158;8.626;2023-06-22T09:18:48;28.80;99.90
16174;DHT22;14031;50.158;8.626;2023-06-22T09:21:15;28.90;99.90
16174;DHT22;14031;50.158;8.626;2023-06-22T09:23:42;28.90;99.90
16174;DHT22;14031;50.158;8.626;2023-06-22T09:26:11;29.00;99.90
16174;DHT22;14031;50.158;8.626;2023-06-22T09:28:38;29.10;99.90
16174;DHT22;14031;50.158;8.626;2023-06-22T09:31:06;29.20;99.90
16174;DHT22;14031;50.158;8.626;2023-06-22T09:33:32;29.40;99.90
16174;DHT22;14031;50.158;8.626;2023-06-22T09:35:59;29.50;99.90
16174;DHT22;14031;50.158;8.626;2023-06-22T09:38:26;29.60;99.90
16174;DHT22;14031;50.158;8.626;2023-06-22T09:40:53;29.80;99.90
16174;DHT22;14031;50.158;8.626;2023-06-22T09:43:19;29.90;99.90
16174;DHT22;14031;50.158;8.626;2023-06-22T09:45:46;29.90;99.90
16174;DHT22;14031;50.158;8.626;2023-06-22T09:48:14;30.00;99.90
16174;DHT22;14031;50.158;8.626;2023-06-22T09:50:41;30.10;99.90
16174;DHT22;14031;50.158;8.626;2023-06-22T09:53:08;30.10;99.90
16174;DHT22;14031;50.158;8.626;2023-06-22T09:55:35;30.10;99.90
16174;DHT22;14031;50.158;8.626;2023-06-22T09:58:02;30.10;99.90
16174;DHT22;14031;50.158;8.626;2023-06-22T10:00:28;30.10;99.90
16174;DHT22;14031;50.158;8.626;2023-06-22T10:02:55;30.40;99.90
16174;DHT22;14031;50.158;8.626;2023-06-22T10:05:24;30.50;99.90
16174;DHT22;14031;50.158;8.626;2023-06-22T10:07:51;30.60;99.90
16174;DHT22;14031;50.158;8.626;2023-06-22T10:10:18;30.60;99.90
16174;DHT22;14031;50.158;8.626;2023-06-22T10:12:46;30.60;99.90
16174;DHT22;14031;50.158;8.626;2023-06-22T10:15:13;30.50;99.90
16174;DHT22;14031;50.158;8.626;2023-06-22T10:17:41;30.50;99.90
16174;DHT22;14031;50.158;8.626;2023-06-22T10:20:08;30.70;99.90
16174;DHT22;14031;50.158;8.626;2023-06-22T10:22:41;30.80;99.90
16174;DHT22;14031;50.158;8.626;2023-06-22T10:25:08;30.90;99.90
16174;DHT22;14031;50.158;8.626;2023-06-22T10:27:35;31.00;99.90
16174;DHT22;14031;50.158;8.626;2023-06-22T10:30:06;31.10;99.90
16174;DHT22;14031;50.158;8.626;2023-06-22T10:32:33;31.30;99.90
16174;DHT22;14031;50.158;8.626;2023-06-22T10:35:00;31.30;99.90
16174;DHT22;14031;50.158;8.626;2023-06-22T10:37:26;31.30;99.90
16174;DHT22;14031;50.158;8.626;2023-06-22T10:39:55;31.30;99.90
16174;DHT22;14031;50.158;8.626;2023-06-22T10:42:22;31.20;99.90
16174;DHT22;14031;50.158;8.626;2023-06-22T10:44:49;31.30;99.90
16174;DHT22;14031;50.158;8.626;2023-06-22T10:47:16;31.40;99.90
16174;DHT22;14031;50.158;8.626;2023-06-22T10:49:43;31.60;99.90
16174;DHT22;14031;50.158;8.626;2023-06-22T10:52:09;31.70;99.90
16174;DHT22;14031;50.158;8.626;2023-06-22T10:54:38;31.90;99.90
16174;DHT22;14031;50.158;8.626;2023-06-22T10:57:07;32.20;99.90
16174;DHT22;14031;50.158;8.626;2023-06-22T10:59:33;32.30;99.90
16174;DHT22;14031;50.158;8.626;2023-06-22T11:02:00;32.40;99.90
16174;DHT22;14031;50.158;8.626;2023-06-22T11:04:27;32.60;99.90
16174;DHT22;14031;50.158;8.626;2023-06-22T11:06:54;32.60;99.90
16174;DHT22;14031;50.158;8.626;2023-06-22T11:09:21;32.60;99.90
16174;DHT22;14031;50.158;8.626;2023-06-22T11:11:50;32.60;99.90
16174;DHT22;14031;50.158;8.626;2023-06-22T11:14:20;32.80;99.90
16174;DHT22;14031;50.158;8.626;2023-06-22T11:16:46;32.90;99.90
16174;DHT22;14031;50.158;8.626;2023-06-22T11:19:13;33.10;99.90
16174;DHT22;14031;50.158;8.626;2023-06-22T11:21:40;33.30;99.90
16174;DHT22;14031;50.158;8.626;2023-06-22T11:24:07;33.40;99.90
16174;DHT22;14031;50.158;8.626;2023-06-22T11:26:34;33.70;99.90
16174;DHT22;14031;50.158;8.626;2023-06-22T11:29:01;33.80;99.90
16174;DHT22;14031;50.158;8.626;2023-06-22T11:31:32;33.70;99.90
16174;DHT22;14031;50.158;8.626;2023-06-22T11:33:58;33.50;99.90
16174;DHT22;14031;50.158;8.626;2023-06-22T11:36:25;33.40;99.90
16174;DHT22;14031;50.158;8.626;2023-06-22T11:38:52;33.20;99.90
16174;DHT22;14031;50.158;8.626;2023-06-22T11:41:19;33.20;99.90
16174;DHT22;14031;50.158;8.626;2023-06-22T11:43:46;33.40;99.90
16174;DHT22;14031;50.158;8.626;2023-06-22T11:46:13;33.50;99.90
16174;DHT22;14031;50.158;8.626;2023-06-22T11:48:41;33.70;99.90
16174;DHT22;14031;50.158;8.626;2023-06-22T11:51:08;34.00;99.90
16174;DHT22;14031;50.158;8.626;2023-06-22T11:53:35;34.20;99.90
16174;DHT22;14031;50.158;8.626;2023-06-22T11:56:01;34.40;99.90
16174;DHT22;14031;50.158;8.626;2023-06-22T11:58:28;34.40;99.90
16174;DHT22;14031;50.158;8.626;2023-06-22T12:00:55;34.30;99.90
16174;DHT22;14031;50.158;8.626;2023-06-22T12:03:22;34.30;99.90
16174;DHT22;14031;50.158;8.626;2023-06-22T12:05:50;34.30;99.90
16174;DHT22;14031;50.158;8.626;2023-06-22T12:08:17;34.50;99.90
16174;DHT22;14031;50.158;8.626;2023-06-22T12:10:44;34.60;99.90
16174;DHT22;14031;50.158;8.626;2023-06-22T12:13:11;34.80;99.90
16174;DHT22;14031;50.158;8.626;2023-06-22T12:15:38;34.90;99.90
16174;DHT22;14031;50.158;8.626;2023-06-22T12:18:05;35.00;99.90
16174;DHT22;14031;50.158;8.626;2023-06-22T12:20:31;35.00;99.90
16174;DHT22;14031;50.158;8.626;2023-06-22T12:22:59;35.00;99.90
16174;DHT22;14031;50.158;8.626;2023-06-22T12:25:26;35.00;99.90
16174;DHT22;14031;50.158;8.626;2023-06-22T12:27:53;35.10;99.90
16174;DHT22;14031;50.158;8.626;2023-06-22T12:30:20;35.30;99.90
16174;DHT22;14031;50.158;8.626;2023-06-22T12:32:47;35.50;99.90
16174;DHT22;14031;50.158;8.626;2023-06-22T12:35:15;35.70;99.90
16174;DHT22;14031;50.158;8.626;2023-06-22T12:37:42;35.80;99.90
16174;DHT22;14031;50.158;8.626;2023-06-22T12:40:11;35.80;99.90
16174;DHT22;14031;50.158;8.626;2023-06-22T12:42:38;35.80;99.90
16174;DHT22;14031;50.158;8.626;2023-06-22T12:45:06;35.90;99.90
16174;DHT22;14031;50.158;8.626;2023-06-22T12:47:32;36.00;99.90
16174;DHT22;14031;50.158;8.626;2023-06-22T12:49:59;36.00;99.90
16174;DHT22;14031;50.158;8.626;2023-06-22T12:52:26;35.90;99.90
16174;DHT22;14031;50.158;8.626;2023-06-22T12:54:53;35.90;99.90
16174;DHT22;14031;50.158;8.626;2023-06-22T12:57:21;35.80;99.90
16174;DHT22;14031;50.158;8.626;2023-06-22T12:59:49;35.60;99.90
16174;DHT22;14031;50.158;8.626;2023-06-22T13:02:15;35.40;99.90
16174;DHT22;14031;50.158;8.626;2023-06-22T13:04:42;35.30;99.90
16174;DHT22;14031;50.158;8.626;2023-06-22T13:07:09;35.10;99.90
16174;DHT22;14031;50.158;8.626;2023-06-22T13:09:36;35.00;99.90
16174;DHT22;14031;50.158;8.626;2023-06-22T13:12:03;34.80;99.90
16174;DHT22;14031;50.158;8.626;2023-06-22T13:14:31;34.90;99.90
16174;DHT22;14031;50.158;8.626;2023-06-22T13:16:58;34.90;99.90
16174;DHT22;14031;50.158;8.626;2023-06-22T13:19:25;34.80;99.90
16174;DHT22;14031;50.158;8.626;2023-06-22T13:21:54;34.60;99.90
16174;DHT22;14031;50.158;8.626;2023-06-22T13:24:21;34.50;99.90
16174;DHT22;14031;50.158;8.626;2023-06-22T13:26:47;34.40;99.90
16174;DHT22;14031;50.158;8.626;2023-06-22T13:29:14;34.30;99.90
16174;DHT22;14031;50.158;8.626;2023-06-22T13:31:42;34.40;99.90
16174;DHT22;14031;50.158;8.626;2023-06-22T13:34:09;34.70;99.90
16174;DHT22;14031;50.158;8.626;2023-06-22T13:36:36;35.00;99.90
16174;DHT22;14031;50.158;8.626;2023-06-22T13:39:03;35.10;99.90
16174;DHT22;14031;50.158;8.626;2023-06-22T13:41:30;35.20;99.90
16174;DHT22;14031;50.158;8.626;2023-06-22T13:43:57;35.30;99.90
16174;DHT22;14031;50.158;8.626;2023-06-22T13:46:24;35.40;99.90
16174;DHT22;14031;50.158;8.626;2023-06-22T13:48:52;35.30;99.90
16174;DHT22;14031;50.158;8.626;2023-06-22T13:51:19;35.20;99.90
16174;DHT22;14031;50.158;8.626;2023-06-22T13:53:46;35.00;99.90
16174;DHT22;14031;50.158;8.626;2023-06-22T13:56:12;34.90;99.90
16174;DHT22;14031;50.158;8.626;2023-06-22T13:58:39;34.70;99.90
16174;DHT22;14031;50.158;8.626;2023-06-22T14:01:06;34.50;99.90
16174;DHT22;14031;50.158;8.626;2023-06-22T14:03:33;34.40;99.90
16174;DHT22;14031;50.158;8.626;2023-06-22T14:06:01;34.60;99.90
16174;DHT22;14031;50.158;8.626;2023-06-22T14:08:27;34.70;99.90
16174;DHT22;14031;50.158;8.626;2023-06-22T14:10:54;35.00;99.90
16174;DHT22;14031;50.158;8.626;2023-06-22T14:13:21;35.40;99.90
16174;DHT22;14031;50.158;8.626;2023-06-22T14:15:48;35.80;99.90
16174;DHT22;14031;50.158;8.626;2023-06-22T14:18:17;36.30;99.90
16174;DHT22;14031;50.158;8.626;2023-06-22T14:20:44;36.60;99.90
16174;DHT22;14031;50.158;8.626;2023-06-22T14:23:13;36.80;99.90
16174;DHT22;14031;50.158;8.626;2023-06-22T14:25:40;37.00;99.90
16174;DHT22;14031;50.158;8.626;2023-06-22T14:28:06;36.70;99.90
16174;DHT22;14031;50.158;8.626;2023-06-22T14:30:34;36.30;99.90
16174;DHT22;14031;50.158;8.626;2023-06-22T14:33:02;35.90;99.90
16174;DHT22;14031;50.158;8.626;2023-06-22T14:35:29;35.50;99.90
16174;DHT22;14031;50.158;8.626;2023-06-22T14:37:56;35.30;99.90
16174;DHT22;14031;50.158;8.626;2023-06-22T14:40:24;35.10;99.90
16174;DHT22;14031;50.158;8.626;2023-06-22T14:42:51;35.00;99.90
16174;DHT22;14031;50.158;8.626;2023-06-22T14:45:17;34.70;99.90
16174;DHT22;14031;50.158;8.626;2023-06-22T14:47:44;34.30;99.90
16174;DHT22;14031;50.158;8.626;2023-06-22T14:50:11;34.10;99.90
16174;DHT22;14031;50.158;8.626;2023-06-22T14:52:38;33.80;99.90
16174;DHT22;14031;50.158;8.626;2023-06-22T14:55:05;33.60;99.90
16174;DHT22;14031;50.158;8.626;2023-06-22T14:57:34;33.40;99.90
16174;DHT22;14031;50.158;8.626;2023-06-22T15:00:00;33.30;99.90
16174;DHT22;14031;50.158;8.626;2023-06-22T15:02:28;33.10;99.90
16174;DHT22;14031;50.158;8.626;2023-06-22T15:04:55;33.10;99.90
16174;DHT22;14031;50.158;8.626;2023-06-22T15:07:21;32.90;99.90
16174;DHT22;14031;50.158;8.626;2023-06-22T15:09:48;32.80;99.90
16174;DHT22;14031;50.158;8.626;2023-06-22T15:12:15;32.80;99.90
16174;DHT22;14031;50.158;8.626;2023-06-22T15:14:43;32.60;99.90
16174;DHT22;14031;50.158;8.626;2023-06-22T15:17:10;32.60;99.90
16174;DHT22;14031;50.158;8.626;2023-06-22T15:19:39;32.40;99.90
16174;DHT22;14031;50.158;8.626;2023-06-22T15:22:06;32.20;99.90
16174;DHT22;14031;50.158;8.626;2023-06-22T15:24:34;32.10;99.90
16174;DHT22;14031;50.158;8.626;2023-06-22T15:27:01;32.00;99.90
16174;DHT22;14031;50.158;8.626;2023-06-22T15:29:27;31.80;99.90
16174;DHT22;14031;50.158;8.626;2023-06-22T15:32:00;31.70;99.90
16174;DHT22;14031;50.158;8.626;2023-06-22T15:34:27;31.60;99.90
16174;DHT22;14031;50.158;8.626;2023-06-22T15:36:54;31.40;99.90
16174;DHT22;14031;50.158;8.626;2023-06-22T15:39:21;31.20;99.90
16174;DHT22;14031;50.158;8.626;2023-06-22T15:41:49;30.70;99.90
16174;DHT22;14031;50.158;8.626;2023-06-22T15:44:19;30.00;99.90
16174;DHT22;14031;50.158;8.626;2023-06-22T15:46:46;29.20;99.90
16174;DHT22;14031;50.158;8.626;2023-06-22T15:49:14;28.80;99.90